Time;durP1;ratioP1;P1;durP2;ratioP2;P2;SDS_P1;SDS_P2;PMS_P1;PMS_P2;Temp;Humidity;BMP_temperature;BMP_pressure;BME280_temperature;BME280_humidity;BME280_pressure;Samples;Min_cycle;Max_cycle;Signal;HPM_P1;HPM_P2
2022/03/18 00:01:30;;;;;;;22.70;8.50;;;;;;;0.57;34.95;101085.11;106073;1274;99378;-71
2022/03/18 00:04:00;;;;;;;20.70;7.10;;;;;;;0.48;34.97;101084.39;106109;1274;112898;-71
2022/03/18 00:06:28;;;;;;;21.10;7.90;;;;;;;0.42;34.81;101087.54;106159;1273;97024;-71
2022/03/18 00:08:56;;;;;;;20.00;7.70;;;;;;;0.39;35.32;101099.06;106142;1274;107797;-68
2022/03/18 00:11:24;;;;;;;22.70;8.90;;;;;;;0.34;35.30;101105.33;105998;1274;96657;-71
2022/03/18 00:13:57;;;;;;;21.50;8.00;;;;;;;0.29;35.60;101107.94;106195;1273;99308;-74
2022/03/18 00:16:26;;;;;;;20.10;8.10;;;;;;;0.26;35.89;101108.09;105977;1274;112878;-72
2022/03/18 00:18:55;;;;;;;19.90;7.50;;;;;;;0.21;35.98;101111.92;106100;1273;99293;-74
2022/03/18 00:21:23;;;;;;;19.50;7.70;;;;;;;0.16;35.91;101108.59;106138;1274;107911;-72
2022/03/18 00:23:54;;;;;;;23.00;8.40;;;;;;;0.14;35.83;101109.29;106209;1274;97748;-72
2022/03/18 00:26:22;;;;;;;19.10;7.20;;;;;;;0.10;36.07;101111.20;106223;1275;97021;-70
2022/03/18 00:28:50;;;;;;;20.90;8.00;;;;;;;0.07;36.54;101110.83;106099;1274;112789;-71
2022/03/18 00:31:24;;;;;;;21.00;7.10;;;;;;;0.02;36.10;101110.11;106168;1273;99245;-69
2022/03/18 00:33:52;;;;;;;20.50;8.20;;;;;;;0.04;36.62;101104.02;106095;1274;107528;-71
2022/03/18 00:36:20;;;;;;;19.00;7.40;;;;;;;0.00;36.26;101106.80;106154;1274;99294;-70
2022/03/18 00:38:48;;;;;;;21.80;7.90;;;;;;;-0.00;36.44;101104.52;106245;1273;97685;-71
2022/03/18 00:41:18;;;;;;;21.60;7.60;;;;;;;-0.01;36.33;101100.17;106144;1274;112849;-71
2022/03/18 00:43:46;;;;;;;18.40;7.40;;;;;;;0.00;36.18;101102.09;106174;1274;99268;-71
2022/03/18 00:46:14;;;;;;;18.60;7.10;;;;;;;0.03;36.21;101097.21;106149;1273;106350;-72
2022/03/18 00:54:15;;;;;;;20.10;7.10;;;;;;;0.04;36.17;101086.73;106120;1274;112751;-71
2022/03/18 00:56:43;;;;;;;21.20;7.70;;;;;;;0.03;35.99;101081.68;106212;1274;99312;-71
2022/03/18 00:59:11;;;;;;;22.20;7.30;;;;;;;0.03;36.08;101082.38;106158;1274;107577;-70
2022/03/18 01:01:39;;;;;;;20.70;7.80;;;;;;;0.04;35.91;101083.61;106093;1274;99080;-71
2022/03/18 01:04:08;;;;;;;19.50;8.30;;;;;;;0.05;36.11;101090.23;106182;1274;99214;-71
2022/03/18 01:06:36;;;;;;;17.40;7.20;;;;;;;0.04;36.18;101089.20;106138;1274;112648;-70
2022/03/18 01:09:05;;;;;;;19.80;7.40;;;;;;;0.03;36.33;101094.23;106135;1274;99333;-70
2022/03/18 01:11:33;;;;;;;20.00;6.80;;;;;;;-0.00;36.73;101088.98;106167;1273;107777;-68
2022/03/18 01:14:04;;;;;;;17.60;7.00;;;;;;;-0.03;36.62;101088.83;106137;1273;99215;-70
2022/03/18 01:16:35;;;;;;;19.10;7.80;;;;;;;-0.04;36.48;101085.68;106147;1274;99179;-70
2022/03/18 01:19:03;;;;;;;21.00;7.80;;;;;;;-0.03;36.54;101087.95;106079;1274;112895;-70
2022/03/18 01:21:32;;;;;;;18.40;7.60;;;;;;;-0.05;36.46;101085.50;106082;1274;99336;-69
2022/03/18 01:24:05;;;;;;;18.00;7.00;;;;;;;-0.04;36.53;101088.65;106038;1274;107809;-71
2022/03/18 01:26:33;;;;;;;17.30;7.50;;;;;;;-0.06;36.56;101088.29;105937;1274;99273;-68
2022/03/18 01:29:01;;;;;;;20.30;7.80;;;;;;;-0.06;36.73;101090.21;106106;1275;99277;-69
2022/03/18 01:31:30;;;;;;;19.60;7.40;;;;;;;-0.06;36.72;101092.31;106139;1274;112697;-69
2022/03/18 01:34:04;;;;;;;20.00;8.00;;;;;;;-0.06;36.44;101093.35;106174;1274;99401;-71
2022/03/18 01:36:32;;;;;;;19.20;7.90;;;;;;;-0.04;36.87;101089.52;106139;1274;107808;-71
2022/03/18 01:39:00;;;;;;;17.80;7.10;;;;;;;-0.07;37.05;101090.02;106104;1274;99213;-68
2022/03/18 01:41:28;;;;;;;20.40;7.50;;;;;;;-0.13;36.86;101087.89;106195;1274;99413;-71
2022/03/18 01:43:56;;;;;;;20.40;7.80;;;;;;;-0.16;36.72;101088.94;106120;1274;112882;-72
2022/03/18 01:46:28;;;;;;;20.30;7.70;;;;;;;-0.17;36.99;101085.27;106096;1274;96525;-70
2022/03/18 01:48:57;;;;;;;20.00;7.80;;;;;;;-0.16;36.97;101083.19;106142;1274;106781;-72
2022/03/18 01:51:25;;;;;;;17.40;6.60;;;;;;;-0.17;36.88;101085.10;106244;1274;99199;-71
2022/03/18 01:56:46;;;;;;;20.40;7.90;;;;;;;-0.18;36.93;101082.13;106128;1274;112741;-72
2022/03/18 01:59:14;;;;;;;20.40;8.10;;;;;;;-0.21;37.05;101087.01;106130;1274;99319;-72
2022/03/18 02:01:42;;;;;;;20.40;8.40;;;;;;;-0.24;37.02;101090.48;106127;1274;108730;-71
2022/03/18 02:04:12;;;;;;;22.10;8.10;;;;;;;-0.26;36.99;101093.61;106140;1274;99293;-69
2022/03/18 02:06:44;;;;;;;18.60;8.00;;;;;;;-0.25;37.17;101093.45;106172;1274;96571;-69
2022/03/18 02:09:12;;;;;;;19.40;7.90;;;;;;;-0.24;37.00;101098.85;106134;1274;113076;-69
2022/03/18 02:11:46;;;;;;;20.80;7.60;;;;;;;-0.22;37.09;101099.91;106189;1274;99255;-68
2022/03/18 02:14:35;;;;;;;18.50;7.20;;;;;;;-0.21;36.95;101103.05;106153;1272;108193;-68
2022/03/18 02:17:06;;;;;;;20.90;8.30;;;;;;;-0.25;37.03;101110.70;106137;1273;99345;-69
2022/03/18 02:19:38;;;;;;;19.60;7.60;;;;;;;-0.27;36.99;101108.27;106148;1273;99310;-69
2022/03/18 02:22:23;;;;;;;20.30;7.60;;;;;;;-0.28;37.03;101107.55;106121;1273;112859;-70
2022/03/18 02:24:55;;;;;;;17.30;7.50;;;;;;;-0.27;37.10;101108.60;106141;1274;99056;-68
2022/03/18 02:27:23;;;;;;;22.20;8.00;;;;;;;-0.27;37.43;101106.86;106007;1275;107770;-70
2022/03/18 02:29:56;;;;;;;19.80;8.10;;;;;;;-0.27;37.19;101105.64;106122;1274;96640;-71
2022/03/18 02:32:27;;;;;;;21.00;7.80;;;;;;;-0.26;36.99;101106.52;106219;1273;99119;-70
2022/03/18 02:34:55;;;;;;;22.50;8.60;;;;;;;-0.26;37.36;101108.44;106123;1273;112748;-69
2022/03/18 02:37:26;;;;;;;22.70;9.30;;;;;;;-0.30;37.08;101111.72;106117;1273;99047;-68
2022/03/18 02:39:59;;;;;;;25.20;9.60;;;;;;;-0.35;37.06;101111.02;106148;1273;108394;-69
2022/03/18 02:42:26;;;;;;;24.60;10.00;;;;;;;-0.37;37.27;101114.30;106130;1273;98385;-68
2022/03/18 02:44:57;;;;;;;26.10;10.50;;;;;;;-0.40;37.37;101118.81;106070;1274;99436;-68
2022/03/18 02:47:28;;;;;;;24.70;9.80;;;;;;;-0.41;37.36;101121.09;106081;1274;113312;-69
2022/03/18 02:49:56;;;;;;;28.30;11.30;;;;;;;-0.44;37.17;101125.59;106135;1273;99218;-70
2022/03/18 02:52:24;;;;;;;27.20;10.90;;;;;;;-0.48;37.29;101128.71;106028;1274;107425;-69
2022/03/18 02:54:52;;;;;;;26.50;10.60;;;;;;;-0.52;37.49;101133.74;106139;1273;96687;-67
2022/03/18 02:57:23;;;;;;;27.00;11.00;;;;;;;-0.55;37.38;101130.42;106121;1273;99326;-70
2022/03/18 02:59:51;;;;;;;26.50;11.40;;;;;;;-0.58;37.17;101131.27;106170;1271;112750;-70
2022/03/18 03:02:19;;;;;;;26.90;11.10;;;;;;;-0.63;37.45;101134.20;106183;1273;99272;-71
2022/03/18 03:10:24;;;;;;;24.10;10.50;;;;;;;-0.79;37.39;101145.58;106188;1273;96542;-71
2022/03/18 03:12:52;;;;;;;26.00;11.30;;;;;;;-0.86;37.40;101142.39;106185;1273;112717;-69
2022/03/18 03:15:22;;;;;;;29.60;11.30;;;;;;;-0.92;37.21;101148.09;106163;1273;99205;-70
2022/03/18 03:17:53;;;;;;;27.50;11.00;;;;;;;-0.97;37.20;101146.67;106081;1273;107758;-70
2022/03/18 03:20:21;;;;;;;30.40;12.50;;;;;;;-1.01;37.06;101147.33;106088;1273;99304;-69
2022/03/18 03:22:49;;;;;;;24.00;10.50;;;;;;;-1.03;37.55;101152.19;106140;1273;99334;-70
2022/03/18 03:25:18;;;;;;;26.90;11.70;;;;;;;-1.06;37.42;101156.00;106131;1273;112784;-70
2022/03/18 03:27:55;;;;;;;30.70;11.50;;;;;;;-1.08;37.33;101157.73;106133;1273;99069;-71
2022/03/18 03:30:24;;;;;;;26.60;10.70;;;;;;;-1.10;37.32;101156.30;106104;1273;107515;-71
2022/03/18 03:32:52;;;;;;;27.40;12.20;;;;;;;-1.13;37.10;101158.02;106134;1273;99327;-70
2022/03/18 03:35:21;;;;;;;26.70;11.40;;;;;;;-1.16;37.41;101164.95;106155;1273;96593;-74
2022/03/18 03:37:49;;;;;;;26.50;11.80;;;;;;;-1.20;37.54;101171.71;103680;1273;113556;-71
2022/03/18 03:40:18;;;;;;;26.30;12.10;;;;;;;-1.23;37.41;101172.56;106147;1273;107730;-70
2022/03/18 03:42:48;;;;;;;29.40;12.90;;;;;;;-1.25;37.68;101173.59;106159;1273;99317;-69
2022/03/18 03:45:16;;;;;;;32.00;14.30;;;;;;;-1.29;37.36;101177.38;106145;1273;99378;-69
2022/03/18 03:47:44;;;;;;;28.70;12.50;;;;;;;-1.33;37.54;101174.55;106173;1273;112885;-70
2022/03/18 03:50:19;;;;;;;26.90;12.50;;;;;;;-1.36;37.71;101172.43;106128;1273;99215;-69
2022/03/18 03:52:50;;;;;;;27.50;12.60;;;;;;;-1.37;37.86;101167.71;106110;1274;106549;-69
2022/03/18 03:55:18;;;;;;;29.60;14.00;;;;;;;-1.40;37.61;101169.08;105970;1275;96625;-70
2022/03/18 03:57:46;;;;;;;28.90;13.10;;;;;;;-1.44;37.57;101169.73;106068;1274;99245;-71
2022/03/18 04:00:17;;;;;;;27.80;12.80;;;;;;;-1.47;37.88;101170.75;106040;1274;112727;-73
2022/03/18 04:02:45;;;;;;;29.80;13.90;;;;;;;-1.51;37.91;101173.14;105986;1275;99338;-71
2022/03/18 04:05:19;;;;;;;29.20;13.70;;;;;;;-1.54;37.64;101171.37;106120;1274;107728;-73
2022/03/18 04:07:47;;;;;;;26.30;11.60;;;;;;;-1.63;37.98;101172.49;106112;1274;99244;-72
2022/03/18 04:10:16;;;;;;;26.80;11.50;;;;;;;-1.73;37.80;101174.98;106153;1274;99277;-73
2022/03/18 04:12:46;;;;;;;28.70;13.40;;;;;;;-1.84;37.81;101177.13;106106;1274;110981;-74
2022/03/18 04:15:14;;;;;;;27.00;12.70;;;;;;;-1.87;37.54;101178.64;106111;1274;99193;-73
2022/03/18 04:17:49;;;;;;;26.50;12.00;;;;;;;-1.90;38.18;101178.78;106110;1274;107572;-71
2022/03/18 04:20:24;;;;;;;27.90;12.70;;;;;;;-1.96;38.07;101179.23;106105;1274;99329;-72
2022/03/18 04:22:52;;;;;;;27.40;12.70;;;;;;;-2.00;38.11;101183.51;106112;1274;96620;-72
2022/03/18 04:25:22;;;;;;;27.90;12.60;;;;;;;-2.03;37.99;101188.16;106159;1274;112489;-73
2022/03/18 04:27:50;;;;;;;29.30;13.70;;;;;;;-2.10;38.11;101188.27;106122;1274;99327;-70
2022/03/18 04:30:18;;;;;;;29.40;13.60;;;;;;;-2.12;38.21;101188.07;105897;1276;107532;-70
2022/03/18 04:32:46;;;;;;;30.80;13.70;;;;;;;-2.14;38.04;101187.86;106030;1274;96554;-74
2022/03/18 04:35:14;;;;;;;31.30;13.60;;;;;;;-2.14;38.15;101192.03;106124;1274;97708;-72
2022/03/18 04:37:45;;;;;;;30.40;13.40;;;;;;;-2.13;38.34;101192.23;106023;1274;112383;-72
2022/03/18 04:40:16;;;;;;;28.90;13.00;;;;;;;-2.13;38.00;101191.88;106014;1274;99209;-74
2022/03/18 04:42:47;;;;;;;33.50;13.50;;;;;;;-2.13;38.12;101194.83;106112;1274;107807;-75
2022/03/18 04:45:16;;;;;;;32.30;14.90;;;;;;;-2.15;38.36;101198.98;106000;1274;99793;-73
2022/03/18 04:47:47;;;;;;;29.70;13.60;;;;;;;-2.19;38.25;101202.91;106093;1274;96613;-74
2022/03/18 04:50:16;;;;;;;31.50;14.10;;;;;;;-2.21;38.30;101210.70;105922;1274;112675;-72
2022/03/18 04:52:44;;;;;;;29.60;12.90;;;;;;;-2.22;38.36;101218.68;105991;1274;98321;-73
2022/03/18 04:55:12;;;;;;;35.00;14.90;;;;;;;-2.24;38.42;101219.88;105981;1274;107483;-70
2022/03/18 04:57:40;;;;;;;32.20;14.40;;;;;;;-2.26;38.49;101218.81;106134;1274;96543;-71
2022/03/18 05:00:09;;;;;;;32.40;14.90;;;;;;;-2.25;38.60;101219.52;106174;1274;99194;-72
2022/03/18 05:02:38;;;;;;;36.80;13.90;;;;;;;-2.23;38.63;101218.50;106050;1274;112720;-73
2022/03/18 05:05:10;;;;;;;32.30;14.90;;;;;;;-2.28;38.68;101219.66;106180;1274;99368;-73
2022/03/18 05:07:44;;;;;;;32.10;14.20;;;;;;;-2.33;38.69;101224.09;106171;1274;107489;-74
2022/03/18 05:10:12;;;;;;;30.90;14.70;;;;;;;-2.33;38.67;101223.92;106225;1274;99250;-74
2022/03/18 05:12:45;;;;;;;37.80;16.40;;;;;;;-2.32;38.65;101221.33;106144;1272;99252;-73
2022/03/18 05:15:14;;;;;;;30.10;14.30;;;;;;;-2.32;38.66;101224.11;106141;1274;112762;-75
2022/03/18 05:17:52;;;;;;;34.90;15.70;;;;;;;-2.33;38.81;101232.96;106033;1274;98536;-73
2022/03/18 05:20:23;;;;;;;32.30;15.10;;;;;;;-2.34;38.70;101234.67;106061;1274;107695;-73
2022/03/18 05:22:51;;;;;;;36.30;16.60;;;;;;;-2.34;38.84;101239.55;106216;1274;99208;-72
2022/03/18 05:25:21;;;;;;;35.20;15.70;;;;;;;-2.33;39.10;101242.16;106097;1274;99976;-72
2022/03/18 05:27:53;;;;;;;33.10;14.60;;;;;;;-2.35;38.89;101237.95;106117;1274;112700;-72
2022/03/18 05:30:22;;;;;;;38.50;17.50;;;;;;;-2.33;39.16;101235.40;106050;1274;97100;-73
2022/03/18 05:32:50;;;;;;;35.00;17.00;;;;;;;-2.35;39.16;101232.41;105977;1274;108790;-75
2022/03/18 05:35:18;;;;;;;34.20;16.50;;;;;;;-2.38;39.04;101240.35;106053;1274;99356;-74
2022/03/18 05:37:51;;;;;;;;;;;;;;;-2.36;39.24;101238.48;106246;1273;99230;-71
2022/03/18 05:40:20;;;;;;;36.70;16.00;;;;;;;-2.35;39.30;101235.88;106173;1274;111358;-74
2022/03/18 05:42:50;;;;;;;37.30;16.60;;;;;;;-2.31;39.25;101239.25;106129;1274;98325;-72
2022/03/18 05:45:18;;;;;;;35.20;17.10;;;;;;;-2.28;39.21;101238.77;105989;1274;107755;-72
2022/03/18 05:47:46;;;;;;;36.80;16.00;;;;;;;-2.25;39.23;101239.86;105889;1275;99418;-74
2022/03/18 05:50:16;;;;;;;36.70;16.30;;;;;;;-2.22;39.33;101244.07;106172;1274;99343;-76
2022/03/18 05:52:45;;;;;;;34.80;16.00;;;;;;;-2.17;39.31;101247.61;106129;1274;112665;-73
2022/03/18 05:55:13;;;;;;;35.50;16.40;;;;;;;-2.12;39.74;101246.31;106046;1274;99303;-73
2022/03/18 05:57:41;;;;;;;34.90;15.50;;;;;;;-2.06;39.64;101246.38;106061;1273;107538;-73
2022/03/18 06:00:10;;;;;;;35.00;17.00;;;;;;;-2.02;39.54;101245.73;106096;1274;99236;-73
2022/03/18 06:02:39;;;;;;;34.20;15.40;;;;;;;-1.97;39.95;101248.95;106250;1274;99310;-72
2022/03/18 06:05:09;;;;;;;38.00;15.70;;;;;;;-1.91;39.64;101249.89;106150;1274;112746;-72
2022/03/18 06:07:38;;;;;;;36.40;17.50;;;;;;;-1.87;39.79;101254.12;106250;1274;99319;-73
2022/03/18 06:13:13;;;;;;;33.30;16.50;;;;;;;-1.78;40.12;101265.71;105611;1281;99425;-74
2022/03/18 06:15:41;;;;;;;32.20;15.80;;;;;;;-1.73;40.06;101271.37;105657;1281;99837;-72
2022/03/18 06:18:17;;;;;;;33.70;16.50;;;;;;;-1.69;40.05;101273.86;105872;1274;112834;-73
2022/03/18 06:20:52;;;;;;;32.80;14.80;;;;;;;-1.64;40.12;101275.14;106095;1274;99975;-72
2022/03/18 06:23:20;;;;;;;33.10;15.50;;;;;;;-1.60;40.23;101274.83;106186;1274;106723;-72
2022/03/18 06:25:48;;;;;;;33.30;14.80;;;;;;;-1.53;40.31;101280.83;106113;1272;97902;-72
2022/03/18 06:28:17;;;;;;;38.00;16.30;;;;;;;-1.46;40.18;101284.91;106120;1273;96744;-73
2022/03/18 06:30:45;;;;;;;32.90;16.10;;;;;;;-1.41;40.13;101283.23;106068;1274;112729;-73
2022/03/18 06:33:14;;;;;;;35.90;16.40;;;;;;;-1.34;40.17;101285.59;106137;1273;99301;-74
2022/03/18 06:35:42;;;;;;;34.50;14.90;;;;;;;-1.26;40.13;101286.91;106048;1274;109484;-74
2022/03/18 06:38:10;;;;;;;35.40;17.10;;;;;;;-1.21;40.24;101286.08;106073;1274;99321;-74
2022/03/18 06:40:38;;;;;;;42.50;15.70;;;;;;;-1.18;40.34;101286.46;106143;1273;99208;-74
2022/03/18 06:43:08;;;;;;;31.70;14.70;;;;;;;-1.11;40.42;101278.54;106053;1272;112709;-76
2022/03/18 06:45:37;;;;;;;34.60;15.70;;;;;;;-1.07;40.50;101281.39;106077;1274;99908;-73
2022/03/18 06:48:08;;;;;;;31.10;16.10;;;;;;;-1.00;40.38;101286.14;105972;1274;108886;-73
2022/03/18 06:50:37;;;;;;;34.90;16.00;;;;;;;-0.93;40.31;101281.86;105958;1274;99493;-74
2022/03/18 06:53:05;;;;;;;35.70;13.90;;;;;;;-0.86;40.44;101285.24;105970;1274;96552;-74
2022/03/18 06:55:33;;;;;;;28.60;14.30;;;;;;;-0.79;40.59;101287.75;105979;1274;112717;-74
2022/03/18 06:58:02;;;;;;;31.50;15.40;;;;;;;-0.73;40.47;101288.15;106089;1274;99211;-74
2022/03/18 07:00:30;;;;;;;32.40;14.10;;;;;;;-0.66;40.88;101291.53;106058;1274;106391;-73
2022/03/18 07:02:58;;;;;;;34.20;15.60;;;;;;;-0.56;40.85;101296.48;106097;1274;99310;-74
2022/03/18 07:05:28;;;;;;;30.70;14.60;;;;;;;-0.46;40.82;101296.77;106008;1274;96615;-73
2022/03/18 07:07:58;;;;;;;33.40;14.20;;;;;;;-0.36;40.94;101294.05;105956;1275;113831;-73
2022/03/18 07:10:25;;;;;;;28.00;12.60;;;;;;;-0.28;40.86;101298.98;106060;1274;99267;-73
2022/03/18 07:12:53;;;;;;;25.90;11.40;;;;;;;-0.19;40.98;101301.50;106171;1274;107620;-73
2022/03/18 07:15:21;;;;;;;27.70;10.40;;;;;;;-0.10;40.96;101302.45;106059;1274;99233;-74
2022/03/18 07:17:58;;;;;;;27.10;11.70;;;;;;;-0.01;41.39;101306.87;106115;1274;97003;-72
2022/03/18 07:20:34;;;;;;;24.60;10.40;;;;;;;0.07;41.28;101308.50;106065;1274;111969;-73
2022/03/18 07:23:09;;;;;;;;;;;;;;;0.14;41.10;101307.14;105930;1274;99277;-73
2022/03/18 07:25:39;;;;;;;;;;;;;;;0.22;41.43;101312.77;106017;1274;107617;-71
2022/03/18 07:28:10;;;;;;;25.90;10.40;;;;;;;0.32;41.43;101317.02;106151;1274;99351;-74
2022/03/18 07:30:41;;;;;;;27.00;11.30;;;;;;;0.43;41.27;101316.73;105938;1274;99272;-75
2022/03/18 07:33:10;;;;;;;24.90;10.90;;;;;;;0.51;41.25;101315.73;105995;1274;112687;-72
2022/03/18 07:35:38;;;;;;;27.60;12.90;;;;;;;0.62;41.33;101321.19;106062;1275;99325;-72
2022/03/18 07:38:12;;;;;;;26.50;11.70;;;;;;;0.69;41.35;101323.84;106135;1273;106616;-72
2022/03/18 07:40:40;;;;;;;26.40;11.30;;;;;;;0.78;41.34;101323.88;106113;1274;99175;-72
2022/03/18 07:43:11;;;;;;;25.30;10.50;;;;;;;0.84;41.27;101320.58;106031;1273;99311;-73
2022/03/18 07:45:40;;;;;;;22.20;10.10;;;;;;;0.94;41.32;101318.86;105985;1274;111839;-74
2022/03/18 07:48:09;;;;;;;24.10;9.50;;;;;;;1.03;41.27;101323.79;105950;1274;97738;-71
2022/03/18 07:50:41;;;;;;;23.30;9.60;;;;;;;1.12;41.43;101326.96;105955;1274;108000;-72
2022/03/18 07:53:10;;;;;;;27.30;11.30;;;;;;;1.23;41.39;101325.92;105845;1274;97256;-73
2022/03/18 07:55:40;;;;;;;24.40;9.50;;;;;;;1.28;41.34;101326.64;105890;1274;99314;-73
2022/03/18 07:58:08;;;;;;;25.60;10.90;;;;;;;1.38;41.33;101326.66;106018;1273;112738;-74
2022/03/18 08:00:36;;;;;;;26.10;10.70;;;;;;;1.48;41.36;101325.10;106033;1273;99340;-72
2022/03/18 08:03:05;;;;;;;25.30;10.50;;;;;;;1.63;41.32;101324.77;106077;1273;107749;-74
2022/03/18 08:05:33;;;;;;;24.50;10.20;;;;;;;1.78;41.31;101334.73;106065;1273;99020;-73
2022/03/18 08:08:01;;;;;;;24.90;10.20;;;;;;;1.89;41.03;101331.58;106028;1274;96634;-74
2022/03/18 08:10:29;;;;;;;21.60;8.50;;;;;;;1.96;40.93;101329.83;106055;1274;112522;-72
2022/03/18 08:12:57;;;;;;;24.50;10.20;;;;;;;2.02;40.71;101333.69;106129;1274;99252;-73
2022/03/18 08:15:28;;;;;;;26.00;10.70;;;;;;;2.07;40.61;101334.71;106154;1274;107679;-70
2022/03/18 08:17:58;;;;;;;25.50;10.80;;;;;;;2.17;40.61;101336.30;106085;1273;99320;-73
2022/03/18 08:20:26;;;;;;;24.10;10.50;;;;;;;2.30;40.36;101337.84;106183;1273;99222;-73
2022/03/18 08:22:56;;;;;;;23.40;10.20;;;;;;;2.40;40.53;101340.78;106162;1273;113434;-72
2022/03/18 08:25:28;;;;;;;25.70;11.10;;;;;;;2.54;40.43;101340.23;106152;1273;99270;-73
2022/03/18 08:27:59;;;;;;;25.80;10.70;;;;;;;2.73;40.62;101338.95;106058;1273;106533;-73
2022/03/18 08:30:27;;;;;;;32.20;16.60;;;;;;;2.89;40.55;101340.11;106010;1273;99340;-70
2022/03/18 08:32:55;;;;;;;28.70;12.50;;;;;;;3.16;40.74;101339.27;105890;1273;97220;-73
2022/03/18 08:35:23;;;;;;;23.30;9.70;;;;;;;3.39;40.62;101341.41;106048;1273;112716;-72
2022/03/18 08:37:57;;;;;;;25.90;11.50;;;;;;;3.47;40.06;101338.55;106079;1273;97023;-74
2022/03/18 08:40:32;;;;;;;26.50;10.90;;;;;;;3.54;40.16;101338.51;105954;1272;107579;-73
2022/03/18 08:43:05;;;;;;;23.10;10.40;;;;;;;3.80;40.66;101341.11;106129;1273;99249;-73
2022/03/18 08:45:34;;;;;;;23.20;9.40;;;;;;;4.34;40.22;101342.03;106083;1274;97279;-73
2022/03/18 08:48:07;;;;;;;22.60;10.10;;;;;;;4.96;39.80;101341.31;106132;1273;113081;-74
2022/03/18 08:50:35;;;;;;;21.90;10.80;;;;;;;5.53;39.77;101337.52;106133;1273;99314;-71
2022/03/18 08:53:09;;;;;;;25.80;11.00;;;;;;;6.31;40.28;101336.94;106060;1274;107695;-74
2022/03/18 08:55:40;;;;;;;23.70;10.00;;;;;;;7.30;40.46;101331.38;106036;1273;97679;-74
2022/03/18 08:58:10;;;;;;;25.80;10.30;;;;;;;8.35;40.46;101332.70;106133;1273;96629;-74
2022/03/18 09:00:39;;;;;;;25.20;10.20;;;;;;;9.16;40.22;101327.41;106032;1274;112531;-74
2022/03/18 09:03:07;;;;;;;27.70;15.40;;;;;;;9.95;40.84;101325.42;106153;1273;99395;-77
2022/03/18 09:05:37;;;;;;;37.10;22.80;;;;;;;10.74;40.83;101329.04;106104;1273;107733;-72
2022/03/18 09:08:05;;;;;;;24.80;11.70;;;;;;;11.35;40.87;101333.15;106046;1273;99242;-74
2022/03/18 09:10:34;;;;;;;22.80;9.80;;;;;;;11.71;40.11;101337.03;106164;1273;99203;-74
2022/03/18 09:13:09;;;;;;;20.60;8.10;;;;;;;11.91;40.17;101340.66;106143;1273;112455;-73
2022/03/18 09:15:36;;;;;;;21.20;10.20;;;;;;;11.79;37.77;101342.73;106176;1273;97115;-74
2022/03/18 09:18:04;;;;;;;21.50;9.70;;;;;;;11.39;38.48;101343.26;106149;1273;107819;-74
2022/03/18 09:20:35;;;;;;;24.10;11.30;;;;;;;11.50;38.90;101339.98;106166;1273;98557;-72
2022/03/18 09:23:04;;;;;;;25.30;12.50;;;;;;;11.73;39.13;101341.75;106033;1275;98330;-73
2022/03/18 09:25:36;;;;;;;27.70;13.40;;;;;;;11.97;39.02;101343.10;106176;1273;114034;-73
2022/03/18 09:28:04;;;;;;;31.70;18.50;;;;;;;12.11;38.93;101342.66;106035;1275;99353;-73
2022/03/18 09:30:54;;;;;;;29.50;13.80;;;;;;;12.39;38.94;101343.98;106158;1273;107625;-73
2022/03/18 09:33:22;;;;;;;25.20;12.70;;;;;;;12.43;38.46;101344.13;106159;1273;99187;-73
2022/03/18 09:35:50;;;;;;;24.70;11.50;;;;;;;12.45;38.51;101341.23;106117;1274;99996;-73
2022/03/18 09:38:19;;;;;;;26.10;12.50;;;;;;;12.52;38.30;101343.05;106130;1273;112751;-73
2022/03/18 09:40:48;;;;;;;42.70;27.80;;;;;;;12.70;38.17;101343.32;107975;1273;97426;-72
2022/03/18 09:43:36;;;;;;;26.70;15.10;;;;;;;13.07;37.85;101345.00;106055;1272;107837;-72
2022/03/18 09:46:10;;;;;;;26.80;13.10;;;;;;;13.16;37.38;101346.92;106589;1273;96932;-73
2022/03/18 09:49:01;;;;;;;23.60;12.20;;;;;;;13.35;37.46;101341.90;106883;1273;96868;-74
2022/03/18 09:51:30;;;;;;;24.20;12.40;;;;;;;13.61;37.06;101336.95;107484;1272;112797;-73
2022/03/18 09:54:17;;;;;;;27.10;14.40;;;;;;;13.83;36.61;101343.00;106964;1274;99270;-73
2022/03/18 09:56:48;;;;;;;28.70;14.00;;;;;;;13.91;37.30;101350.44;106061;1274;107751;-72
2022/03/18 10:03:36;;;;;;;25.80;13.20;;;;;;;13.01;35.61;101349.39;106144;1273;99209;-74
2022/03/18 10:06:07;;;;;;;26.90;13.60;;;;;;;12.74;35.55;101352.94;106147;1273;113004;-71
2022/03/18 10:08:35;;;;;;;28.50;13.50;;;;;;;12.64;36.04;101351.73;106152;1273;99786;-72
2022/03/18 10:11:14;;;;;;;24.50;12.80;;;;;;;12.46;34.97;101351.30;106157;1273;107884;-71
2022/03/18 10:14:03;;;;;;;24.50;12.50;;;;;;;12.31;35.80;101353.58;106206;1273;99234;-71
2022/03/18 10:16:34;;;;;;;27.60;12.90;;;;;;;12.35;35.91;101355.86;106131;1272;99345;-72
2022/03/18 10:19:11;;;;;;;25.70;11.90;;;;;;;12.32;35.59;101359.23;106176;1274;112791;-74
2022/03/18 10:21:59;;;;;;;30.50;12.60;;;;;;;12.21;35.45;101363.40;106038;1274;99245;-72
2022/03/18 10:24:38;;;;;;;24.20;10.90;;;;;;;12.16;35.51;101365.09;106003;1274;107619;-76
2022/03/18 10:27:16;;;;;;;26.40;11.50;;;;;;;12.01;35.18;101368.33;105840;1274;99255;-74
2022/03/18 10:29:48;;;;;;;25.90;12.50;;;;;;;11.80;34.71;101366.15;106128;1273;98328;-74
2022/03/18 10:32:19;;;;;;;26.10;12.30;;;;;;;11.62;34.47;101366.16;106084;1273;112743;-70
2022/03/18 10:37:41;;;;;;;25.20;13.10;;;;;;;10.99;33.54;101365.42;106023;1274;107760;-74
2022/03/18 10:40:11;;;;;;;26.70;12.70;;;;;;;10.99;34.38;101369.15;106019;1274;99221;-71
2022/03/18 10:42:41;;;;;;;26.60;12.60;;;;;;;11.08;34.46;101371.80;106088;1274;99324;-74
2022/03/18 10:45:09;;;;;;;27.90;13.10;;;;;;;11.10;33.94;101372.79;106097;1274;112758;-73
2022/03/18 10:47:42;;;;;;;27.80;12.70;;;;;;;11.09;33.78;101370.02;106131;1274;99234;-74
2022/03/18 10:50:10;;;;;;;26.60;12.50;;;;;;;11.02;33.29;101372.55;105998;1274;108602;-74
2022/03/18 10:53:04;;;;;;;24.90;11.30;;;;;;;10.85;32.81;101377.13;105986;1274;99170;-74
2022/03/18 10:55:40;;;;;;;26.30;12.50;;;;;;;10.70;33.36;101374.46;106065;1274;97571;-74
2022/03/18 10:58:12;;;;;;;22.80;10.30;;;;;;;10.73;32.92;101373.30;106162;1273;112683;-74
2022/03/18 11:00:46;;;;;;;25.30;11.50;;;;;;;10.70;32.09;101374.27;106221;1273;99953;-72
2022/03/18 11:03:15;;;;;;;26.30;11.60;;;;;;;10.59;32.61;101373.95;106166;1273;107700;-71
2022/03/18 11:05:51;;;;;;;22.80;10.40;;;;;;;10.47;32.91;101374.38;106198;1273;99181;-73
2022/03/18 11:08:35;;;;;;;24.10;10.70;;;;;;;10.56;33.02;101375.67;106154;1273;99367;-71
2022/03/18 11:11:10;;;;;;;29.00;11.50;;;;;;;10.60;32.83;101374.11;106093;1274;112879;-71
2022/03/18 11:13:45;;;;;;;25.80;11.30;;;;;;;10.63;32.66;101371.16;106137;1273;99206;-71
2022/03/18 11:16:27;;;;;;;23.30;10.70;;;;;;;10.63;32.22;101371.88;106237;1274;107426;-73
2022/03/18 11:18:57;;;;;;;23.90;10.10;;;;;;;10.54;32.26;101375.37;106210;1273;99344;-72
2022/03/18 11:21:35;;;;;;;21.80;9.70;;;;;;;10.47;32.11;101372.08;106142;1273;99231;-73
2022/03/18 11:24:12;;;;;;;22.60;9.50;;;;;;;10.49;32.10;101370.95;106126;1273;112985;-73
2022/03/18 11:26:49;;;;;;;21.70;9.40;;;;;;;10.58;32.15;101374.34;106262;1273;99341;-74
2022/03/18 11:29:35;;;;;;;23.80;8.90;;;;;;;10.68;32.06;101370.45;106055;1273;107773;-73
2022/03/18 11:32:15;;;;;;;29.60;9.80;;;;;;;10.71;31.51;101368.20;106166;1273;99208;-73
2022/03/18 11:34:57;;;;;;;22.40;8.80;;;;;;;10.54;31.38;101374.85;106191;1273;99514;-74
2022/03/18 11:37:28;;;;;;;22.00;8.70;;;;;;;10.31;31.46;101375.98;106114;1273;112770;-74
2022/03/18 11:40:27;;;;;;;24.30;9.80;;;;;;;10.30;31.66;101377.08;106222;1273;99231;-73
2022/03/18 11:42:56;;;;;;;22.90;9.00;;;;;;;10.42;31.56;101365.52;106230;1273;107672;-73
2022/03/18 11:45:42;;;;;;;23.40;9.70;;;;;;;10.52;31.71;101364.97;106132;1273;96566;-74